createdAt,value
2023-05-04T00:00:03.992Z,64.62
2023-05-04T00:01:04.618Z,64.53
2023-05-04T00:02:03.792Z,64.43
2023-05-04T00:03:03.887Z,64.62
2023-05-04T00:04:03.989Z,65.39
2023-05-04T00:05:03.780Z,65.00
2023-05-04T00:06:03.777Z,64.91
2023-05-04T00:07:03.796Z,64.91
2023-05-04T00:08:03.762Z,65.39
2023-05-04T00:09:03.736Z,65.58
2023-05-04T00:10:04.840Z,65.67
2023-05-04T00:11:03.729Z,65.67
2023-05-04T00:12:03.725Z,65.55
2023-05-04T00:13:03.775Z,66.02
2023-05-04T00:14:03.744Z,66.02
2023-05-04T00:15:03.879Z,65.73
2023-05-04T00:16:03.771Z,65.64
2023-05-04T00:17:03.731Z,65.73
2023-05-04T00:18:03.752Z,65.83
2023-05-04T00:19:03.706Z,65.64
2023-05-04T00:20:03.823Z,66.02
2023-05-04T00:21:03.692Z,66.11
2023-05-04T00:22:03.693Z,66.40
2023-05-04T00:23:03.689Z,66.50
2023-05-04T00:24:03.690Z,66.40
2023-05-04T00:25:03.695Z,66.21
2023-05-04T00:26:03.719Z,66.40
2023-05-04T00:27:03.672Z,66.78
2023-05-04T00:28:03.705Z,66.69
2023-05-04T00:29:03.734Z,66.88
2023-05-04T00:30:04.824Z,66.97
2023-05-04T00:31:03.659Z,67.07
2023-05-04T00:32:03.807Z,67.45
2023-05-04T00:33:03.735Z,67.45
2023-05-04T00:34:03.660Z,67.45
2023-05-04T00:35:03.661Z,67.35
2023-05-04T00:36:03.622Z,67.16
2023-05-04T00:37:03.635Z,67.45
2023-05-04T00:38:03.624Z,67.35
2023-05-04T00:39:03.611Z,67.26
2023-05-04T00:40:03.832Z,67.55
2023-05-04T00:41:03.608Z,68.21
2023-05-04T00:42:03.609Z,67.83
2023-05-04T00:43:04.119Z,67.64
2023-05-04T00:44:03.593Z,67.83
2023-05-04T00:45:03.617Z,68.21
2023-05-04T00:46:03.624Z,68.21
2023-05-04T00:47:04.253Z,68.21
2023-05-04T00:48:03.641Z,68.59
2023-05-04T00:49:03.649Z,68.02
2023-05-04T00:50:03.755Z,68.02
2023-05-04T00:51:03.680Z,68.02
2023-05-04T00:52:03.556Z,68.21
2023-05-04T00:53:03.560Z,68.59
2023-05-04T00:54:03.571Z,68.59
2023-05-04T00:55:03.561Z,68.59
2023-05-04T00:56:03.544Z,68.69
2023-05-04T00:57:03.568Z,68.69
2023-05-04T00:58:03.540Z,68.69
2023-05-04T00:59:03.549Z,68.98
2023-05-04T01:00:03.685Z,68.88
2023-05-04T01:01:03.569Z,68.78
2023-05-04T01:02:04.134Z,68.69
2023-05-04T01:03:03.593Z,68.69
2023-05-04T01:04:03.619Z,68.59
2023-05-04T01:05:03.506Z,68.69
2023-05-04T01:06:03.505Z,68.65
2023-05-04T01:07:03.573Z,68.56
2023-05-04T01:08:04.684Z,68.65
2023-05-04T01:09:04.135Z,68.98
2023-05-04T01:10:03.695Z,69.54
2023-05-04T01:11:03.516Z,68.88
2023-05-04T01:12:04.133Z,68.69
2023-05-04T01:13:03.522Z,68.65
2023-05-04T01:14:04.128Z,68.84
2023-05-04T01:15:03.487Z,68.75
2023-05-04T01:16:03.476Z,68.65
2023-05-04T01:17:03.550Z,69.32
2023-05-04T01:18:03.490Z,69.42
2023-05-04T01:19:03.458Z,69.13
2023-05-04T01:20:03.566Z,69.23
2023-05-04T01:21:04.123Z,69.70
2023-05-04T01:22:03.435Z,69.23
2023-05-04T01:23:03.501Z,69.32
2023-05-04T01:24:04.133Z,69.42
2023-05-04T01:25:03.430Z,69.79
2023-05-04T01:26:03.412Z,69.70
2023-05-04T01:27:03.412Z,69.54
2023-05-04T01:28:04.626Z,69.74
2023-05-04T01:29:03.411Z,69.51
2023-05-04T01:30:03.705Z,69.64
2023-05-04T01:31:04.179Z,69.54
2023-05-04T01:32:03.383Z,69.79
2023-05-04T01:33:03.415Z,69.42
2023-05-04T01:34:03.376Z,69.32
2023-05-04T01:35:03.374Z,69.60
2023-05-04T01:36:03.399Z,69.70
2023-05-04T01:37:03.378Z,69.79
2023-05-04T01:38:03.392Z,69.51
2023-05-04T01:39:03.365Z,69.70
2023-05-04T01:40:03.632Z,70.18
2023-05-04T01:41:04.125Z,70.18
2023-05-04T01:42:03.373Z,70.37
2023-05-04T01:43:03.340Z,70.18
2023-05-04T01:44:03.824Z,69.99
2023-05-04T01:45:03.328Z,70.08
2023-05-04T01:46:03.395Z,69.99
2023-05-04T01:47:03.323Z,69.60
2023-05-04T01:48:03.345Z,69.79
2023-05-04T01:49:03.307Z,69.23
2023-05-04T01:50:03.475Z,69.70
2023-05-04T01:51:03.315Z,69.70
2023-05-04T01:52:03.301Z,69.70
2023-05-04T01:53:03.292Z,70.08
2023-05-04T01:54:03.296Z,69.99
2023-05-04T01:55:03.297Z,70.18
2023-05-04T01:56:03.281Z,70.37
2023-05-04T01:57:03.276Z,70.47
2023-05-04T01:58:03.267Z,70.37
2023-05-04T01:59:03.291Z,70.37
2023-05-04T02:00:03.584Z,70.08
2023-05-04T02:01:04.137Z,70.18
2023-05-04T02:02:03.312Z,69.99
2023-05-04T02:03:03.355Z,69.99
2023-05-04T02:04:03.442Z,70.18
2023-05-04T02:05:03.254Z,69.99
2023-05-04T02:06:03.236Z,69.79
2023-05-04T02:07:03.233Z,70.18
2023-05-04T02:08:03.222Z,69.79
2023-05-04T02:09:03.772Z,70.08
2023-05-04T02:10:03.358Z,69.99
2023-05-04T02:11:03.328Z,70.27
2023-05-04T02:12:03.202Z,70.18
2023-05-04T02:13:03.257Z,70.47
2023-05-04T02:14:03.194Z,70.18
2023-05-04T02:15:03.187Z,69.89
2023-05-04T02:16:03.211Z,70.47
2023-05-04T02:17:03.187Z,70.08
2023-05-04T02:18:03.208Z,70.27
2023-05-04T02:19:03.185Z,70.75
2023-05-04T02:20:03.354Z,70.75
2023-05-04T02:21:03.173Z,70.65
2023-05-04T02:22:03.163Z,70.65
2023-05-04T02:23:03.170Z,70.65
2023-05-04T02:24:03.162Z,70.84
2023-05-04T02:25:03.147Z,70.75
2023-05-04T02:26:03.164Z,71.03
2023-05-04T02:27:03.137Z,70.56
2023-05-04T02:28:03.125Z,71.13
2023-05-04T02:29:03.149Z,71.00
2023-05-04T02:30:03.410Z,71.03
2023-05-04T02:31:03.682Z,70.75
2023-05-04T02:32:03.208Z,70.84
2023-05-04T02:33:03.128Z,71.03
2023-05-04T02:34:03.113Z,70.84
2023-05-04T02:35:03.093Z,71.03
2023-05-04T02:36:03.086Z,70.65
2023-05-04T02:37:05.181Z,70.90
2023-05-04T02:38:03.113Z,70.43
2023-05-04T02:39:03.090Z,71.00
2023-05-04T02:40:03.396Z,71.00
2023-05-04T02:41:03.081Z,70.62
2023-05-04T02:42:03.079Z,70.90
2023-05-04T02:43:03.107Z,71.19
2023-05-04T02:44:03.067Z,71.19
2023-05-04T02:45:03.643Z,70.90
2023-05-04T02:46:03.108Z,71.38
2023-05-04T02:47:03.049Z,71.38
2023-05-04T02:48:03.161Z,71.00
2023-05-04T02:49:03.037Z,71.47
2023-05-04T02:50:03.428Z,71.38
2023-05-04T02:51:03.036Z,71.19
2023-05-04T02:52:03.014Z,71.57
2023-05-04T02:53:03.019Z,71.38
2023-05-04T02:54:03.030Z,71.57
2023-05-04T02:55:03.023Z,71.57
2023-05-04T02:56:03.021Z,71.38
2023-05-04T02:57:03.007Z,71.76
2023-05-04T02:58:03.001Z,71.76
2023-05-04T02:59:03.004Z,71.86
2023-05-04T03:00:03.188Z,72.14
2023-05-04T03:01:03.002Z,72.14
2023-05-04T03:02:04.196Z,71.95
2023-05-04T03:03:03.003Z,71.86
2023-05-04T03:04:03.004Z,71.95
2023-05-04T03:05:02.981Z,72.05
2023-05-04T03:06:02.981Z,71.86
2023-05-04T03:07:03.647Z,72.05
2023-05-04T03:08:02.972Z,71.76
2023-05-04T03:09:02.946Z,72.05
2023-05-04T03:10:03.815Z,71.95
2023-05-04T03:11:02.939Z,72.05
2023-05-04T03:12:02.934Z,72.24
2023-05-04T03:13:02.967Z,71.95
2023-05-04T03:14:02.946Z,72.05
2023-05-04T03:15:03.648Z,71.95
2023-05-04T03:16:02.961Z,72.33
2023-05-04T03:17:03.649Z,72.05
2023-05-04T03:18:02.932Z,71.76
2023-05-04T03:19:02.964Z,71.47
2023-05-04T03:20:03.203Z,71.86
2023-05-04T03:21:02.896Z,71.95
2023-05-04T03:22:03.644Z,72.05
2023-05-04T03:23:02.890Z,72.14
2023-05-04T03:24:02.877Z,72.24
2023-05-04T03:25:02.860Z,72.05
2023-05-04T03:26:02.858Z,71.86
2023-05-04T03:27:02.878Z,72.05
2023-05-04T03:28:03.721Z,72.05
2023-05-04T03:29:02.844Z,71.76
2023-05-04T03:30:03.311Z,71.38
2023-05-04T03:31:02.848Z,71.76
2023-05-04T03:32:02.858Z,72.05
2023-05-04T03:33:02.873Z,72.24
2023-05-04T03:34:02.887Z,72.05
2023-05-04T03:35:04.052Z,72.05
2023-05-04T03:36:02.837Z,72.14
2023-05-04T03:37:02.821Z,72.05
2023-05-04T03:38:02.801Z,71.67
2023-05-04T03:39:02.811Z,72.05
2023-05-04T03:40:02.955Z,72.05
2023-05-04T03:41:02.792Z,71.86
2023-05-04T03:42:02.805Z,72.42
2023-05-04T03:43:02.776Z,72.14
2023-05-04T03:44:02.821Z,72.62
2023-05-04T03:45:04.356Z,72.42
2023-05-04T03:46:02.830Z,72.52
2023-05-04T03:47:02.763Z,72.52
2023-05-04T03:48:02.814Z,72.33
2023-05-04T03:49:02.761Z,72.24
2023-05-04T03:50:03.046Z,72.42
2023-05-04T03:51:02.794Z,72.14
2023-05-04T03:52:02.778Z,72.62
2023-05-04T03:53:02.737Z,72.71
2023-05-04T03:54:02.731Z,72.62
2023-05-04T03:55:02.725Z,72.52
2023-05-04T03:56:02.723Z,72.42
2023-05-04T03:57:02.714Z,72.52
2023-05-04T03:58:02.715Z,72.05
2023-05-04T03:59:02.727Z,72.71
2023-05-04T04:00:02.847Z,72.05
2023-05-04T04:01:02.685Z,72.42
2023-05-04T04:02:02.750Z,72.52
2023-05-04T04:03:02.919Z,72.24
2023-05-04T04:04:02.794Z,72.14
2023-05-04T04:05:02.675Z,72.52
2023-05-04T04:06:02.667Z,72.81
2023-05-04T04:07:02.654Z,72.33
2023-05-04T04:08:02.658Z,72.33
2023-05-04T04:09:02.659Z,71.95
2023-05-04T04:10:02.940Z,72.33
2023-05-04T04:11:02.632Z,72.42
2023-05-04T04:12:02.629Z,72.52
2023-05-04T04:13:02.680Z,72.24
2023-05-04T04:14:02.644Z,72.42
2023-05-04T04:15:02.647Z,72.42
2023-05-04T04:16:03.199Z,72.52
2023-05-04T04:17:02.609Z,72.62
2023-05-04T04:18:02.648Z,72.81
2023-05-04T04:19:02.596Z,72.42
2023-05-04T04:20:02.803Z,72.49
2023-05-04T04:21:02.637Z,72.49
2023-05-04T04:22:02.581Z,72.42
2023-05-04T04:23:03.156Z,72.58
2023-05-04T04:24:02.594Z,72.42
2023-05-04T04:25:02.598Z,72.62
2023-05-04T04:26:02.561Z,72.39
2023-05-04T04:27:02.593Z,72.39
2023-05-04T04:28:02.571Z,72.20
2023-05-04T04:29:02.551Z,72.20
2023-05-04T04:30:02.685Z,72.39
2023-05-04T04:31:02.568Z,72.11
2023-05-04T04:32:02.566Z,72.67
2023-05-04T04:33:03.211Z,72.58
2023-05-04T04:34:02.532Z,72.86
2023-05-04T04:35:02.644Z,73.06
2023-05-04T04:36:02.517Z,73.53
2023-05-04T04:37:02.545Z,73.25
2023-05-04T04:38:03.938Z,73.25
2023-05-04T04:39:02.498Z,73.25
2023-05-04T04:40:02.721Z,72.96
2023-05-04T04:41:02.503Z,73.15
2023-05-04T04:42:02.495Z,73.25
2023-05-04T04:43:02.482Z,72.96
2023-05-04T04:44:02.472Z,73.25
2023-05-04T04:45:02.503Z,73.44
2023-05-04T04:46:02.462Z,73.15
2023-05-04T04:47:02.501Z,73.25
2023-05-04T04:48:02.509Z,73.15
2023-05-04T04:49:02.479Z,73.44
2023-05-04T04:50:02.530Z,73.19
2023-05-04T04:51:02.448Z,73.25
2023-05-04T04:52:02.429Z,74.29
2023-05-04T04:53:02.432Z,76.71
2023-05-04T04:54:02.445Z,75.57
2023-05-04T04:55:02.428Z,74.24
2023-05-04T04:56:09.625Z,73.38
2023-05-04T04:58:06.492Z,72.42
2023-05-04T04:59:06.380Z,73.00
2023-05-04T05:01:10.490Z,72.42
2023-05-04T05:02:10.408Z,72.42
2023-05-04T05:04:14.398Z,72.42
2023-05-04T05:05:14.451Z,72.33
2023-05-04T05:07:07.334Z,72.42
2023-05-04T05:08:07.304Z,72.14
2023-05-04T05:10:11.363Z,72.14
2023-05-04T05:11:11.313Z,72.33
2023-05-04T05:13:15.323Z,72.24
2023-05-04T05:14:15.264Z,72.24
2023-05-04T05:16:19.317Z,72.90
2023-05-04T05:17:19.242Z,72.33
2023-05-04T05:19:23.227Z,72.42
2023-05-04T05:20:23.210Z,72.42
2023-05-04T05:21:23.235Z,72.42
2023-05-04T05:22:23.214Z,72.05
2023-05-04T05:23:23.195Z,72.14
2023-05-04T05:24:23.196Z,72.42
2023-05-04T05:25:23.192Z,72.65
2023-05-04T05:26:24.134Z,72.71
2023-05-04T05:27:23.174Z,72.46
2023-05-04T05:28:23.170Z,72.17
2023-05-04T05:29:23.165Z,72.08
2023-05-04T05:30:23.170Z,72.46
2023-05-04T05:31:23.172Z,72.08
2023-05-04T05:32:23.159Z,71.80
2023-05-04T05:33:23.149Z,71.61
2023-05-04T05:34:23.146Z,71.32
2023-05-04T05:35:23.155Z,71.42
2023-05-04T05:36:23.147Z,71.32
2023-05-04T05:37:23.133Z,71.51
2023-05-04T05:38:23.133Z,71.42
2023-05-04T05:39:23.120Z,70.65
2023-05-04T05:40:23.123Z,70.65
2023-05-04T05:41:23.119Z,71.03
2023-05-04T05:42:23.283Z,70.88
2023-05-04T05:43:23.127Z,70.59
2023-05-04T05:44:23.122Z,69.93
2023-05-04T05:45:23.201Z,69.17
2023-05-04T05:46:23.149Z,69.45
2023-05-04T05:47:23.141Z,73.96
2023-05-04T05:48:23.220Z,76.06
2023-05-04T05:49:23.113Z,75.34
2023-05-04T05:50:23.115Z,70.86
2023-05-04T05:51:23.109Z,68.32
2023-05-04T05:52:23.131Z,66.78
2023-05-04T05:53:23.119Z,66.12
2023-05-04T05:54:23.133Z,65.17
2023-05-04T05:55:23.138Z,64.97
2023-05-04T05:56:23.157Z,65.17
2023-05-04T05:57:23.138Z,64.69
2023-05-04T05:58:23.144Z,64.50
2023-05-04T05:59:24.144Z,64.59
2023-05-04T06:00:23.158Z,64.05
2023-05-04T06:01:24.302Z,63.86
2023-05-04T06:02:23.237Z,63.67
2023-05-04T06:03:23.366Z,63.29
2023-05-04T06:04:23.270Z,63.10
2023-05-04T06:05:23.208Z,63.20
2023-05-04T06:06:23.209Z,63.23
2023-05-04T06:07:23.214Z,63.23
2023-05-04T06:08:23.221Z,63.13
2023-05-04T06:09:23.238Z,62.84
2023-05-04T06:10:23.249Z,62.18
2023-05-04T06:11:23.264Z,61.44
2023-05-04T06:12:24.706Z,60.77
2023-05-04T06:13:23.265Z,60.39
2023-05-04T06:14:24.153Z,60.49
2023-05-04T06:15:23.291Z,60.30
2023-05-04T06:16:23.336Z,60.20
2023-05-04T06:17:23.349Z,60.23
2023-05-04T06:18:23.320Z,59.66
2023-05-04T06:19:23.335Z,60.33
2023-05-04T06:20:23.331Z,58.80
2023-05-04T06:21:23.350Z,58.41
2023-05-04T06:22:23.380Z,57.93
2023-05-04T06:23:23.377Z,56.98
2023-05-04T06:24:23.375Z,56.82
2023-05-04T06:25:23.392Z,55.96
2023-05-04T06:26:23.415Z,56.05
2023-05-04T06:27:24.274Z,55.76
2023-05-04T06:28:23.444Z,56.34
2023-05-04T06:29:23.427Z,56.15
2023-05-04T06:30:23.438Z,56.37
2023-05-04T06:31:23.476Z,56.27
2023-05-04T06:32:23.507Z,56.10
2023-05-04T06:33:23.502Z,55.73
2023-05-04T06:34:23.486Z,54.50
2023-05-04T06:35:23.501Z,53.55
2023-05-04T06:36:23.505Z,53.16
2023-05-04T06:37:23.645Z,52.87
2023-05-04T06:38:23.541Z,52.87
2023-05-04T06:39:23.546Z,52.40
2023-05-04T06:40:23.565Z,50.29
2023-05-04T06:41:23.591Z,50.48
2023-05-04T06:42:23.603Z,51.08
2023-05-04T06:43:24.163Z,51.15
2023-05-04T06:44:23.612Z,52.04
2023-05-04T06:45:23.646Z,52.04
2023-05-04T06:46:23.659Z,51.28
2023-05-04T06:47:23.742Z,51.56
2023-05-04T06:48:23.649Z,51.56
2023-05-04T06:49:23.669Z,51.97
2023-05-04T06:50:23.696Z,51.30
2023-05-04T06:51:23.709Z,51.59
2023-05-04T06:52:23.726Z,50.34
2023-05-04T06:53:23.735Z,49.48
2023-05-04T06:54:23.732Z,49.48
2023-05-04T06:55:23.742Z,49.31
2023-05-04T06:56:23.775Z,49.21
2023-05-04T06:57:23.769Z,49.02
2023-05-04T06:58:23.808Z,48.44
2023-05-04T06:59:23.820Z,47.87
2023-05-04T07:00:23.826Z,47.49
2023-05-04T07:01:23.900Z,48.16
2023-05-04T07:02:23.933Z,49.02
2023-05-04T07:03:23.990Z,48.35
2023-05-04T07:04:26.787Z,47.41
2023-05-04T07:05:23.904Z,47.03
2023-05-04T07:06:23.922Z,46.74
2023-05-04T07:07:23.942Z,46.84
2023-05-04T07:08:23.933Z,47.51
2023-05-04T07:09:23.972Z,48.38
2023-05-04T07:10:23.986Z,48.09
2023-05-04T07:11:23.958Z,47.99
2023-05-04T07:12:24.039Z,48.18
2023-05-04T07:13:23.990Z,47.13
2023-05-04T07:14:24.008Z,47.41
2023-05-04T07:15:24.015Z,47.63
2023-05-04T07:16:24.129Z,48.11
2023-05-04T07:17:24.156Z,47.72
2023-05-04T07:18:24.087Z,50.32
2023-05-04T07:19:24.090Z,50.82
2023-05-04T07:20:26.020Z,50.34
2023-05-04T07:21:28.399Z,50.44
2023-05-04T07:22:24.170Z,49.48
2023-05-04T07:23:24.152Z,49.77
2023-05-04T07:24:24.195Z,49.41
2023-05-04T07:25:24.158Z,48.74
2023-05-04T07:26:24.168Z,47.39
2023-05-04T07:27:24.232Z,47.80
2023-05-04T07:28:24.203Z,47.41
2023-05-04T07:29:24.247Z,46.74
2023-05-04T07:30:24.303Z,46.06
2023-05-04T07:31:24.286Z,45.78
2023-05-04T07:32:24.341Z,45.49
2023-05-04T07:33:24.293Z,45.70
2023-05-04T07:34:33.983Z,45.32
2023-05-04T07:35:24.310Z,45.03
2023-05-04T07:36:24.346Z,45.13
2023-05-04T07:37:24.576Z,43.01
2023-05-04T07:38:24.454Z,42.91
2023-05-04T07:39:24.358Z,44.07
2023-05-04T07:40:24.399Z,44.74
2023-05-04T07:41:24.470Z,44.19
2023-05-04T07:42:24.474Z,43.51
2023-05-04T07:43:24.452Z,42.93
2023-05-04T07:44:24.524Z,43.23
2023-05-04T07:45:24.460Z,42.26
2023-05-04T07:46:24.491Z,41.49
2023-05-04T07:47:24.734Z,40.63
2023-05-04T07:48:26.341Z,40.34
2023-05-04T07:49:24.517Z,41.39
2023-05-04T07:50:25.268Z,40.81
2023-05-04T07:51:24.576Z,41.11
2023-05-04T07:52:24.551Z,41.97
2023-05-04T07:53:24.587Z,41.49
2023-05-04T07:54:24.636Z,41.30
2023-05-04T07:55:24.610Z,40.91
2023-05-04T07:56:24.649Z,41.20
2023-05-04T07:57:24.712Z,40.72
2023-05-04T07:58:24.684Z,40.72
2023-05-04T07:59:24.680Z,41.88
2023-05-04T08:00:24.713Z,41.11
2023-05-04T08:01:24.792Z,40.72
2023-05-04T08:02:24.895Z,40.91
2023-05-04T08:03:24.902Z,41.39
2023-05-04T08:04:24.758Z,41.20
2023-05-04T08:05:24.777Z,41.30
2023-05-04T08:06:24.806Z,41.30
2023-05-04T08:07:25.749Z,40.63
2023-05-04T08:08:25.764Z,40.72
2023-05-04T08:09:24.824Z,40.91
2023-05-04T08:10:24.885Z,40.24
2023-05-04T08:11:24.848Z,40.34
2023-05-04T08:12:25.759Z,40.34
2023-05-04T08:13:24.880Z,40.43
2023-05-04T08:14:24.881Z,40.05
2023-05-04T08:15:24.888Z,40.43
2023-05-04T08:16:24.925Z,39.76
2023-05-04T08:17:25.807Z,40.05
2023-05-04T08:18:25.857Z,40.91
2023-05-04T08:19:25.742Z,41.20
2023-05-04T08:20:25.103Z,41.30
2023-05-04T08:21:25.120Z,40.81
2023-05-04T08:22:24.980Z,39.76
2023-05-04T08:23:25.056Z,39.09
2023-05-04T08:24:25.025Z,39.66
2023-05-04T08:25:25.011Z,39.56
2023-05-04T08:26:25.014Z,39.56
2023-05-04T08:27:25.225Z,40.24
2023-05-04T08:28:25.072Z,40.53
2023-05-04T08:29:25.755Z,40.43
2023-05-04T08:30:25.053Z,40.81
2023-05-04T08:31:25.121Z,40.43
2023-05-04T08:32:25.132Z,39.86
2023-05-04T08:33:25.142Z,39.95
2023-05-04T08:34:25.090Z,39.66
2023-05-04T08:35:25.081Z,39.95
2023-05-04T08:36:25.097Z,39.56
2023-05-04T08:37:25.133Z,39.47
2023-05-04T08:38:25.150Z,37.74
2023-05-04T08:39:25.241Z,39.09
2023-05-04T08:40:25.143Z,39.18
2023-05-04T08:41:25.132Z,39.47
2023-05-04T08:42:25.190Z,38.89
2023-05-04T08:43:25.175Z,39.86
2023-05-04T08:44:25.151Z,40.34
2023-05-04T08:45:25.199Z,40.14
2023-05-04T08:46:25.204Z,40.14
2023-05-04T08:47:25.180Z,38.70
2023-05-04T08:48:25.271Z,38.60
2023-05-04T08:49:25.164Z,37.16
2023-05-04T08:50:25.161Z,38.12
2023-05-04T08:51:25.229Z,37.16
2023-05-04T08:52:25.169Z,37.35
2023-05-04T08:53:25.188Z,37.26
2023-05-04T08:54:25.193Z,37.26
2023-05-04T08:55:25.238Z,37.24
2023-05-04T08:56:25.207Z,36.37
2023-05-04T08:57:25.253Z,36.08
2023-05-04T08:58:25.200Z,36.47
2023-05-04T08:59:25.236Z,37.14
2023-05-04T09:00:25.218Z,38.59
2023-05-04T09:01:25.330Z,39.06
2023-05-04T09:02:25.308Z,39.56
2023-05-04T09:03:25.292Z,39.37
2023-05-04T09:04:26.541Z,39.09
2023-05-04T09:05:25.217Z,37.93
2023-05-04T09:06:25.265Z,37.06
2023-05-04T09:07:25.311Z,37.16
2023-05-04T09:08:25.266Z,35.91
2023-05-04T09:09:25.267Z,34.74
2023-05-04T09:10:26.901Z,35.89
2023-05-04T09:11:25.273Z,37.24
2023-05-04T09:12:25.306Z,37.52
2023-05-04T09:13:25.298Z,36.25
2023-05-04T09:14:25.270Z,36.07
2023-05-04T09:15:25.265Z,37.41
2023-05-04T09:16:25.344Z,38.76
2023-05-04T09:17:25.448Z,39.53
2023-05-04T09:18:25.296Z,38.76
2023-05-04T09:19:25.262Z,37.99
2023-05-04T09:20:25.251Z,39.14
2023-05-04T09:21:25.277Z,40.20
2023-05-04T09:22:26.529Z,39.43
2023-05-04T09:23:25.280Z,39.04
2023-05-04T09:24:25.259Z,38.37
2023-05-04T09:25:25.292Z,39.14
2023-05-04T09:26:25.362Z,38.56
2023-05-04T09:27:25.263Z,37.79
2023-05-04T09:28:26.138Z,36.93
2023-05-04T09:29:25.283Z,37.32
2023-05-04T09:30:25.319Z,38.56
2023-05-04T09:31:25.341Z,37.89
2023-05-04T09:32:25.305Z,37.41
2023-05-04T09:33:25.292Z,37.79
2023-05-04T09:34:25.281Z,37.41
2023-05-04T09:35:32.444Z,37.79
2023-05-04T09:36:25.293Z,36.35
2023-05-04T09:37:25.307Z,36.64
2023-05-04T09:38:25.441Z,37.70
2023-05-04T09:39:25.303Z,37.99
2023-05-04T09:40:25.309Z,38.35
2023-05-04T09:41:25.351Z,39.03
2023-05-04T09:42:25.311Z,38.35
2023-05-04T09:43:25.331Z,38.64
2023-05-04T09:44:26.380Z,39.62
2023-05-04T09:45:25.314Z,38.93
2023-05-04T09:46:25.344Z,38.37
2023-05-04T09:47:26.352Z,39.31
2023-05-04T09:48:25.317Z,39.12
2023-05-04T09:49:26.309Z,38.66
2023-05-04T09:50:26.822Z,37.51
2023-05-04T09:51:26.862Z,36.43
2023-05-04T09:52:25.328Z,37.39
2023-05-04T09:53:25.371Z,36.62
2023-05-04T09:54:25.325Z,35.85
2023-05-04T09:55:25.354Z,35.85
2023-05-04T09:56:25.339Z,36.15
2023-05-04T09:57:25.336Z,36.15
2023-05-04T09:58:25.366Z,36.22
2023-05-04T09:59:25.340Z,36.22
2023-05-04T10:00:25.349Z,37.57
2023-05-04T10:01:25.376Z,38.72
2023-05-04T10:02:25.378Z,39.78
2023-05-04T10:03:25.426Z,39.03
2023-05-04T10:04:25.385Z,37.47
2023-05-04T10:05:25.369Z,37.27
2023-05-04T10:06:25.353Z,37.08
2023-05-04T10:07:25.371Z,37.47
2023-05-04T10:08:25.373Z,38.24
2023-05-04T10:09:25.381Z,39.49
2023-05-04T10:10:26.309Z,39.97
2023-05-04T10:11:25.366Z,38.24
2023-05-04T10:12:25.391Z,37.57
2023-05-04T10:13:25.384Z,38.04
2023-05-04T10:14:26.786Z,38.53
2023-05-04T10:15:25.379Z,39.11
2023-05-04T10:16:25.415Z,39.01
2023-05-04T10:17:25.394Z,38.43
2023-05-04T10:18:25.382Z,38.81
2023-05-04T10:19:25.378Z,39.29
2023-05-04T10:20:26.299Z,38.81
2023-05-04T10:21:25.382Z,38.81
2023-05-04T10:22:25.392Z,38.70
2023-05-04T10:23:25.395Z,39.37
2023-05-04T10:24:25.408Z,39.58
2023-05-04T10:25:25.425Z,39.58
2023-05-04T10:26:25.407Z,38.70
2023-05-04T10:27:25.412Z,39.47
2023-05-04T10:28:25.389Z,38.89
2023-05-04T10:29:25.391Z,38.43
2023-05-04T10:30:25.414Z,37.64
2023-05-04T10:31:25.442Z,38.60
2023-05-04T10:32:25.477Z,38.99
2023-05-04T10:33:25.409Z,38.70
2023-05-04T10:34:25.410Z,38.51
2023-05-04T10:35:25.409Z,37.35
2023-05-04T10:36:25.410Z,37.07
2023-05-04T10:37:25.410Z,37.35
2023-05-04T10:38:25.474Z,38.02
2023-05-04T10:39:25.408Z,38.32
2023-05-04T10:40:25.478Z,37.26
2023-05-04T10:41:25.415Z,37.45
2023-05-04T10:42:25.433Z,37.34
2023-05-04T10:43:25.461Z,37.34
2023-05-04T10:44:25.439Z,37.24
2023-05-04T10:45:25.501Z,37.43
2023-05-04T10:46:25.460Z,37.34
2023-05-04T10:47:25.628Z,37.43
2023-05-04T10:48:25.457Z,37.05
2023-05-04T10:49:25.475Z,35.89
2023-05-04T10:50:26.377Z,36.66
2023-05-04T10:51:32.672Z,35.99
2023-05-04T10:52:25.441Z,35.32
2023-05-04T10:53:25.448Z,35.32
2023-05-04T10:54:25.461Z,34.45
2023-05-04T10:55:25.438Z,35.13
2023-05-04T10:56:25.499Z,35.22
2023-05-04T10:57:25.448Z,35.61
2023-05-04T10:58:25.493Z,35.51
2023-05-04T10:59:25.446Z,34.94
2023-05-04T11:00:25.456Z,35.13
2023-05-04T11:01:25.477Z,35.22
2023-05-04T11:02:25.555Z,35.80
2023-05-04T11:03:25.570Z,35.80
2023-05-04T11:04:25.470Z,36.38
2023-05-04T11:05:25.462Z,36.28
2023-05-04T11:06:25.504Z,35.89
2023-05-04T11:07:26.398Z,36.09
2023-05-04T11:08:25.473Z,36.26
2023-05-04T11:09:25.453Z,35.97
2023-05-04T11:10:25.523Z,35.97
2023-05-04T11:11:25.474Z,36.07
2023-05-04T11:12:25.490Z,36.07
2023-05-04T11:13:25.535Z,36.93
2023-05-04T11:14:25.467Z,37.32
2023-05-04T11:15:25.512Z,37.13
2023-05-04T11:16:25.511Z,37.89
2023-05-04T11:17:28.523Z,38.47
2023-05-04T11:18:25.467Z,38.47
2023-05-04T11:19:25.465Z,38.85
2023-05-04T11:20:25.476Z,39.06
2023-05-04T11:21:25.465Z,38.59
2023-05-04T11:22:25.472Z,38.29
2023-05-04T11:23:25.475Z,37.53
2023-05-04T11:24:25.486Z,37.32
2023-05-04T11:25:25.487Z,37.41
2023-05-04T11:26:25.504Z,37.80
2023-05-04T11:27:25.517Z,38.01
2023-05-04T11:28:25.501Z,37.70
2023-05-04T11:29:25.501Z,37.41
2023-05-04T11:30:25.527Z,36.93
2023-05-04T11:31:25.520Z,37.05
2023-05-04T11:32:25.561Z,37.03
2023-05-04T11:33:26.369Z,37.53
2023-05-04T11:34:25.489Z,37.41
2023-05-04T11:35:25.506Z,37.41
2023-05-04T11:36:25.527Z,37.22
2023-05-04T11:37:25.506Z,35.97
2023-05-04T11:38:25.526Z,36.46
2023-05-04T11:39:25.498Z,36.84
2023-05-04T11:40:25.510Z,37.22
2023-05-04T11:41:25.508Z,37.60
2023-05-04T11:42:25.534Z,38.37
2023-05-04T11:43:25.522Z,37.80
2023-05-04T11:44:25.511Z,37.80
2023-05-04T11:45:25.519Z,37.70
2023-05-04T11:46:25.546Z,38.37
2023-05-04T11:47:25.575Z,38.28
2023-05-04T11:48:25.576Z,38.20
2023-05-04T11:49:25.545Z,38.39
2023-05-04T11:50:25.510Z,39.06
2023-05-04T11:51:25.581Z,38.68
2023-05-04T11:52:25.544Z,38.59
2023-05-04T11:53:25.511Z,38.10
2023-05-04T11:54:25.509Z,37.43
2023-05-04T11:55:25.505Z,38.29
2023-05-04T11:56:25.515Z,37.82
2023-05-04T11:57:25.530Z,37.53
2023-05-04T11:58:25.543Z,37.15
2023-05-04T11:59:25.519Z,37.43
2023-05-04T12:00:25.526Z,37.24
2023-05-04T12:01:25.539Z,37.43
2023-05-04T12:02:25.566Z,37.43
2023-05-04T12:03:27.999Z,37.34
2023-05-04T12:04:25.568Z,37.43
2023-05-04T12:05:25.544Z,37.34
2023-05-04T12:06:25.548Z,37.34
2023-05-04T12:07:25.538Z,37.72
2023-05-04T12:08:25.547Z,37.72
2023-05-04T12:09:25.586Z,38.29
2023-05-04T12:10:26.335Z,38.78
2023-05-04T12:11:25.679Z,39.26
2023-05-04T12:12:25.533Z,39.16
2023-05-04T12:13:25.535Z,38.49
2023-05-04T12:14:25.676Z,37.82
2023-05-04T12:15:25.550Z,37.82
2023-05-04T12:16:25.567Z,38.20
2023-05-04T12:17:25.565Z,38.49
2023-05-04T12:18:25.609Z,38.78
2023-05-04T12:19:25.546Z,38.78
2023-05-04T12:20:25.581Z,38.59
2023-05-04T12:21:25.560Z,38.20
2023-05-04T12:22:25.552Z,38.49
2023-05-04T12:23:25.544Z,38.68
2023-05-04T12:24:25.559Z,38.89
2023-05-04T12:25:25.592Z,38.68
2023-05-04T12:26:25.582Z,38.20
2023-05-04T12:27:25.578Z,37.62
2023-05-04T12:28:26.337Z,37.82
2023-05-04T12:29:25.563Z,37.93
2023-05-04T12:30:25.577Z,37.82
2023-05-04T12:31:25.847Z,37.34
2023-05-04T12:32:25.584Z,36.86
2023-05-04T12:33:25.558Z,37.05
2023-05-04T12:34:25.587Z,36.86
2023-05-04T12:35:25.575Z,37.05
2023-05-04T12:36:25.600Z,37.34
2023-05-04T12:37:25.599Z,37.34
2023-05-04T12:38:25.625Z,37.15
2023-05-04T12:39:25.597Z,37.15
2023-05-04T12:40:28.764Z,37.34
2023-05-04T12:41:25.610Z,37.53
2023-05-04T12:42:25.580Z,37.62
2023-05-04T12:43:25.585Z,37.34
2023-05-04T12:44:25.580Z,37.24
2023-05-04T12:45:25.579Z,37.43
2023-05-04T12:46:25.609Z,37.82
2023-05-04T12:47:25.587Z,38.39
2023-05-04T12:48:25.595Z,38.49
2023-05-04T12:49:25.590Z,37.43
2023-05-04T12:50:25.730Z,37.82
2023-05-04T12:51:25.600Z,37.43
2023-05-04T12:52:25.602Z,37.45
2023-05-04T12:53:25.607Z,37.34
2023-05-04T12:54:25.590Z,37.45
2023-05-04T12:55:25.748Z,37.82
2023-05-04T12:56:26.352Z,37.62
2023-05-04T12:57:25.608Z,37.15
2023-05-04T12:58:26.437Z,36.88
2023-05-04T12:59:26.349Z,37.16
2023-05-04T13:00:25.602Z,37.26